createdAt,value
2022-12-19T00:00:14.825Z,665.4
2022-12-19T00:01:12.123Z,665.4
2022-12-19T00:02:12.406Z,665.5
2022-12-19T00:03:12.213Z,665.4
2022-12-19T00:05:12.513Z,665.4
2022-12-19T00:07:12.688Z,665.4
2022-12-19T00:08:16.939Z,665.3
2022-12-19T00:09:12.471Z,665.4
2022-12-19T00:10:12.149Z,665.5
2022-12-19T00:11:12.133Z,665.5
2022-12-19T00:12:18.900Z,665.5
2022-12-19T00:13:12.568Z,665.5
2022-12-19T00:14:12.535Z,665.4
2022-12-19T00:15:12.132Z,665.4
2022-12-19T00:17:12.126Z,665.5
2022-12-19T00:18:12.234Z,665.5
2022-12-19T00:19:12.137Z,665.5
2022-12-19T00:20:12.137Z,665.6
2022-12-19T00:21:12.198Z,665.6
2022-12-19T00:23:13.048Z,665.5
2022-12-19T00:25:12.730Z,665.4
2022-12-19T00:27:12.111Z,665.6
2022-12-19T00:28:12.154Z,665.6
2022-12-19T00:29:14.428Z,665.5
2022-12-19T00:31:12.192Z,665.6
2022-12-19T00:35:12.535Z,666.7
2022-12-19T00:36:12.121Z,666.3
2022-12-19T00:38:12.121Z,665.9
2022-12-19T00:39:12.672Z,665.9
2022-12-19T00:40:12.206Z,665.9
2022-12-19T00:41:12.627Z,665.8
2022-12-19T00:43:12.701Z,665.8
2022-12-19T00:44:12.819Z,665.9
2022-12-19T00:46:12.968Z,665.9
2022-12-19T00:47:12.237Z,665.8
2022-12-19T00:48:12.433Z,665.9
2022-12-19T00:50:12.160Z,665.9
2022-12-19T00:51:12.127Z,666.1
2022-12-19T00:52:13.681Z,666.1
2022-12-19T00:53:12.782Z,666
2022-12-19T00:54:12.858Z,666.1
2022-12-19T00:55:18.567Z,666.1
2022-12-19T00:56:12.111Z,666.1
2022-12-19T00:57:12.254Z,666
2022-12-19T00:59:12.118Z,666
2022-12-19T01:00:12.133Z,666.1
2022-12-19T01:01:12.177Z,666.2
2022-12-19T01:02:12.306Z,666.2
2022-12-19T01:04:28.172Z,666.3
2022-12-19T01:05:12.294Z,666.3
2022-12-19T01:06:12.817Z,666.3
2022-12-19T01:07:12.165Z,666.4
2022-12-19T01:08:12.118Z,666.4
2022-12-19T01:09:12.159Z,666.3
2022-12-19T01:10:12.669Z,666.5
2022-12-19T01:11:12.124Z,666.4
2022-12-19T01:12:12.122Z,666.4
2022-12-19T01:13:12.747Z,666.5
2022-12-19T01:15:12.565Z,666.6
2022-12-19T01:16:12.153Z,666.5
2022-12-19T01:17:12.121Z,666.5
2022-12-19T01:18:12.707Z,666.5
2022-12-19T01:19:12.583Z,666.5
2022-12-19T01:20:12.126Z,666.5
2022-12-19T01:21:12.115Z,666.6
2022-12-19T01:23:12.450Z,666.5
2022-12-19T01:25:12.725Z,666.7
2022-12-19T01:26:12.690Z,666.7
2022-12-19T01:27:12.771Z,666.7
2022-12-19T01:28:12.656Z,666.7
2022-12-19T01:29:12.726Z,666.8
2022-12-19T01:30:12.375Z,668.3
2022-12-19T01:31:12.183Z,667.4
2022-12-19T01:33:12.781Z,667.2
2022-12-19T01:34:12.118Z,667
2022-12-19T01:36:12.645Z,666.9
2022-12-19T01:37:12.533Z,666.9
2022-12-19T01:39:12.119Z,666.8
2022-12-19T01:40:12.095Z,666.9
2022-12-19T01:41:12.137Z,666.8
2022-12-19T01:42:12.547Z,666.8
2022-12-19T01:43:12.112Z,666.8
2022-12-19T01:44:12.133Z,666.8
2022-12-19T01:46:12.663Z,666.9
2022-12-19T01:47:12.206Z,666.9
2022-12-19T01:48:12.105Z,666.9
2022-12-19T01:49:12.115Z,666.9
2022-12-19T01:50:12.117Z,667
2022-12-19T01:51:12.332Z,667
2022-12-19T01:52:19.502Z,667
2022-12-19T01:53:12.365Z,667
2022-12-19T01:54:12.906Z,667.1
2022-12-19T01:55:12.777Z,667.1
2022-12-19T01:56:12.588Z,666.9
2022-12-19T01:57:12.359Z,666.9
2022-12-19T01:58:12.085Z,666.9
2022-12-19T01:59:12.080Z,666.9
2022-12-19T02:00:12.081Z,666.9
2022-12-19T02:01:12.139Z,667
2022-12-19T02:02:12.909Z,666.9
2022-12-19T02:03:12.422Z,667
2022-12-19T02:04:12.660Z,666.9
2022-12-19T02:05:12.079Z,666.9
2022-12-19T02:07:15.906Z,666.8
2022-12-19T02:08:12.346Z,666.8
2022-12-19T02:09:12.082Z,666.8
2022-12-19T02:11:12.063Z,666.9
2022-12-19T02:12:12.750Z,666.9
2022-12-19T02:13:12.077Z,666.9
2022-12-19T02:14:12.584Z,666.9
2022-12-19T02:15:12.097Z,666.9
2022-12-19T02:21:12.574Z,667
2022-12-19T02:22:17.431Z,667
2022-12-19T02:23:12.119Z,667
2022-12-19T02:24:12.345Z,667
2022-12-19T02:25:12.076Z,667
2022-12-19T02:26:12.396Z,667.1
2022-12-19T02:28:12.132Z,667
2022-12-19T02:29:12.764Z,667.1
2022-12-19T02:30:12.979Z,667.1
2022-12-19T02:33:12.946Z,667.2
2022-12-19T02:35:12.815Z,667.2
2022-12-19T02:37:12.202Z,667.3
2022-12-19T02:38:13.208Z,667.4
2022-12-19T02:39:12.153Z,667.5
2022-12-19T02:40:12.082Z,667.5
2022-12-19T02:41:12.585Z,667.4
2022-12-19T02:42:12.718Z,667.4
2022-12-19T02:43:12.103Z,667.4
2022-12-19T02:44:12.804Z,667.5
2022-12-19T02:45:12.516Z,667.5
2022-12-19T02:46:12.119Z,667.4
2022-12-19T02:47:12.082Z,667.5
2022-12-19T02:48:16.177Z,667.6
2022-12-19T02:50:12.454Z,667.6
2022-12-19T02:51:12.296Z,667.7
2022-12-19T02:53:12.085Z,667.6
2022-12-19T02:54:13.051Z,667.8
2022-12-19T02:55:12.104Z,668
2022-12-19T02:56:12.492Z,667.8
2022-12-19T02:57:12.103Z,667.7
2022-12-19T02:58:12.081Z,667.7
2022-12-19T02:59:12.768Z,667.7
2022-12-19T03:00:12.098Z,667.8
2022-12-19T03:01:12.128Z,667.9
2022-12-19T03:03:12.318Z,668
2022-12-19T03:04:12.807Z,667.8
2022-12-19T03:05:12.809Z,667.9
2022-12-19T03:06:12.089Z,668
2022-12-19T03:08:12.226Z,668.1
2022-12-19T03:09:12.888Z,668.1
2022-12-19T03:10:12.081Z,668
2022-12-19T03:11:12.552Z,667.9
2022-12-19T03:12:17.163Z,668
2022-12-19T03:15:12.121Z,668.1
2022-12-19T03:16:12.732Z,668.2
2022-12-19T03:17:12.105Z,668.3
2022-12-19T03:18:12.139Z,668.2
2022-12-19T03:19:12.767Z,668.2
2022-12-19T03:20:12.100Z,668.2
2022-12-19T03:21:12.113Z,668.3
2022-12-19T03:22:12.083Z,668.3
2022-12-19T03:23:12.112Z,668.9
2022-12-19T03:24:12.102Z,668.8
2022-12-19T03:25:12.402Z,668.6
2022-12-19T03:26:12.173Z,668.6
2022-12-19T03:27:12.386Z,668.6
2022-12-19T03:28:12.694Z,668.5
2022-12-19T03:29:12.807Z,668.6
2022-12-19T03:30:12.245Z,668.6
2022-12-19T03:32:12.112Z,668.6
2022-12-19T03:33:12.349Z,668.5
2022-12-19T03:34:12.109Z,668.5
2022-12-19T03:40:12.933Z,669.2
2022-12-19T03:42:13.022Z,668.8
2022-12-19T03:43:12.941Z,668.6
2022-12-19T03:44:12.104Z,668.5
2022-12-19T03:45:12.940Z,668.4
2022-12-19T03:46:12.177Z,668.7
2022-12-19T03:47:12.959Z,668.6
2022-12-19T03:48:12.102Z,668.5
2022-12-19T03:49:12.119Z,668.4
2022-12-19T03:50:12.832Z,668.3
2022-12-19T03:51:12.120Z,668.3
2022-12-19T03:52:12.111Z,668.4
2022-12-19T03:53:12.113Z,668.5
2022-12-19T03:54:12.147Z,668.4
2022-12-19T03:55:12.823Z,668.5
2022-12-19T03:56:12.124Z,668.5
2022-12-19T03:58:12.321Z,668.5
2022-12-19T03:59:12.444Z,668.4
2022-12-19T04:00:12.692Z,668.4
2022-12-19T04:01:12.740Z,668.3
2022-12-19T04:02:12.348Z,668.4
2022-12-19T04:03:12.637Z,668.4
2022-12-19T04:04:12.361Z,668.4
2022-12-19T04:05:12.136Z,668.4
2022-12-19T04:06:12.760Z,668.4
2022-12-19T04:08:12.573Z,668.5
2022-12-19T04:09:12.113Z,668.6
2022-12-19T04:10:12.575Z,668.6
2022-12-19T04:11:12.099Z,668.5
2022-12-19T04:12:12.111Z,668.5
2022-12-19T04:13:12.106Z,668.4
2022-12-19T04:14:12.494Z,668.4
2022-12-19T04:15:12.138Z,668.5
2022-12-19T04:16:12.389Z,668.5
2022-12-19T04:17:12.083Z,668.5
2022-12-19T04:18:12.111Z,668.5
2022-12-19T04:19:12.272Z,668.5
2022-12-19T04:20:12.780Z,668.5
2022-12-19T04:22:12.104Z,668.5
2022-12-19T04:23:12.588Z,668.6
2022-12-19T04:24:12.189Z,668.5
2022-12-19T04:26:12.626Z,668.7
2022-12-19T04:27:12.102Z,668.6
2022-12-19T04:29:12.129Z,668.6
2022-12-19T04:30:12.105Z,668.5
2022-12-19T04:31:12.574Z,668.6
2022-12-19T04:32:12.832Z,668.5
2022-12-19T04:33:13.073Z,668.5
2022-12-19T04:34:12.700Z,668.5
2022-12-19T04:35:12.479Z,668.6
2022-12-19T04:36:12.766Z,668.6
2022-12-19T04:37:12.914Z,668.8
2022-12-19T04:38:12.119Z,668.8
2022-12-19T04:40:12.850Z,668.7
2022-12-19T04:41:12.256Z,668.6
2022-12-19T04:42:12.537Z,668.8
2022-12-19T04:43:12.104Z,668.9
2022-12-19T04:44:11.580Z,668.9
2022-12-19T04:45:12.119Z,668.9
2022-12-19T04:47:12.102Z,668.7
2022-12-19T04:48:12.782Z,668.7
2022-12-19T04:50:12.099Z,668.7
2022-12-19T04:51:14.364Z,668.7
2022-12-19T04:52:12.085Z,668.6
2022-12-19T04:53:12.538Z,668.6
2022-12-19T04:54:12.677Z,668.6
2022-12-19T04:56:12.095Z,668.6
2022-12-19T04:57:12.092Z,668.6
2022-12-19T04:58:12.097Z,668.6
2022-12-19T04:59:12.099Z,668.5
2022-12-19T05:00:12.760Z,668.7
2022-12-19T05:01:12.138Z,668.7
2022-12-19T05:02:12.207Z,668.6
2022-12-19T05:05:12.092Z,668.6
2022-12-19T05:06:12.714Z,668.6
2022-12-19T05:08:12.753Z,668.8
2022-12-19T05:09:12.837Z,668.8
2022-12-19T05:10:12.098Z,668.8
2022-12-19T05:11:19.023Z,668.8
2022-12-19T05:15:12.436Z,668.8
2022-12-19T05:16:12.641Z,668.9
2022-12-19T05:17:12.549Z,669
2022-12-19T05:18:12.095Z,669
2022-12-19T05:19:12.402Z,669
2022-12-19T05:20:12.142Z,669
2022-12-19T05:21:12.122Z,669.1
2022-12-19T05:22:12.099Z,669
2022-12-19T05:23:17.355Z,668.9
2022-12-19T05:24:12.100Z,668.9
2022-12-19T05:25:12.712Z,668.9
2022-12-19T05:26:12.152Z,668.8
2022-12-19T05:27:13.451Z,668.9
2022-12-19T05:28:12.082Z,668.9
2022-12-19T05:29:12.099Z,669
2022-12-19T05:30:12.504Z,669
2022-12-19T05:31:12.192Z,669
2022-12-19T05:32:12.095Z,668.9
2022-12-19T05:33:12.662Z,669
2022-12-19T05:34:12.101Z,668.9
2022-12-19T05:35:12.754Z,668.9
2022-12-19T05:36:11.403Z,668.9
2022-12-19T05:37:13.045Z,668.8
2022-12-19T05:38:12.274Z,668.8
2022-12-19T05:39:12.889Z,668.8
2022-12-19T05:40:12.106Z,668.8
2022-12-19T05:41:12.460Z,668.8
2022-12-19T05:42:12.618Z,668.9
2022-12-19T05:43:12.673Z,668.9
2022-12-19T05:44:12.557Z,668.9
2022-12-19T05:45:12.182Z,668.9
2022-12-19T05:46:12.149Z,668.9
2022-12-19T05:48:12.095Z,668.9
2022-12-19T05:49:12.981Z,668.9
2022-12-19T05:50:12.698Z,668.8
2022-12-19T05:51:12.630Z,668.8
2022-12-19T05:52:12.836Z,668.9
2022-12-19T05:53:12.703Z,668.8
2022-12-19T05:54:12.086Z,668.8
2022-12-19T05:55:12.302Z,668.8
2022-12-19T05:56:12.127Z,668.9
2022-12-19T05:57:12.080Z,668.8
2022-12-19T05:58:12.077Z,668.8
2022-12-19T05:59:12.095Z,668.9
2022-12-19T06:00:12.707Z,668.9
2022-12-19T06:01:12.476Z,668.9
2022-12-19T06:02:12.765Z,669
2022-12-19T06:03:12.922Z,669
2022-12-19T06:04:12.356Z,668.9
2022-12-19T06:06:12.626Z,668.9
2022-12-19T06:07:14.345Z,668.9
2022-12-19T06:08:12.800Z,668.9
2022-12-19T06:09:12.099Z,669.1
2022-12-19T06:10:12.357Z,669.1
2022-12-19T06:11:12.089Z,669.1
2022-12-19T06:12:12.134Z,669.1
2022-12-19T06:13:12.080Z,669.1
2022-12-19T06:14:12.821Z,669.2
2022-12-19T06:15:12.666Z,669.1
2022-12-19T06:16:13.124Z,669.1
2022-12-19T06:17:12.089Z,669.2
2022-12-19T06:18:12.114Z,669.2
2022-12-19T06:20:12.083Z,669.2
2022-12-19T06:21:12.085Z,669.2
2022-12-19T06:22:12.441Z,669.3
2022-12-19T06:23:12.090Z,669.3
2022-12-19T06:24:12.351Z,669.5
2022-12-19T06:25:12.852Z,670.1
2022-12-19T06:26:17.080Z,670
2022-12-19T06:27:12.197Z,669.7
2022-12-19T06:28:12.082Z,669.6
2022-12-19T06:29:12.091Z,669.5
2022-12-19T06:30:12.953Z,669.4
2022-12-19T06:31:12.177Z,669.3
2022-12-19T06:32:12.463Z,669.3
2022-12-19T06:33:12.501Z,669.2
2022-12-19T06:34:22.089Z,669.2
2022-12-19T06:35:12.087Z,669.2
2022-12-19T06:36:12.108Z,669.3
2022-12-19T06:37:12.133Z,669.3
2022-12-19T06:38:12.476Z,669.3
2022-12-19T06:39:12.522Z,669.3
2022-12-19T06:41:11.533Z,669.4
2022-12-19T06:42:12.201Z,669.4
2022-12-19T06:43:12.089Z,669.3
2022-12-19T06:45:12.247Z,669.3
2022-12-19T06:46:12.810Z,669.4
2022-12-19T06:47:12.083Z,669.5
2022-12-19T06:48:12.076Z,669.4
2022-12-19T06:49:12.908Z,669.5
2022-12-19T06:50:12.077Z,669.5
2022-12-19T06:51:12.086Z,669.5
2022-12-19T06:52:12.076Z,669.5
2022-12-19T06:53:12.582Z,669.6
2022-12-19T06:54:12.310Z,669.5
2022-12-19T06:55:12.177Z,669.5
2022-12-19T06:56:12.823Z,669.4
2022-12-19T06:57:12.082Z,669.5
2022-12-19T06:58:12.072Z,669.6
2022-12-19T06:59:12.054Z,670.1
2022-12-19T07:00:12.090Z,670.2
2022-12-19T07:02:12.196Z,670.4
2022-12-19T07:03:12.458Z,670.2
2022-12-19T07:05:12.120Z,670.4
2022-12-19T07:06:12.653Z,670.1
2022-12-19T07:07:12.884Z,670
2022-12-19T07:08:12.095Z,670
2022-12-19T07:09:12.709Z,670.1
2022-12-19T07:10:12.182Z,670.1
2022-12-19T07:11:12.730Z,670.1
2022-12-19T07:12:12.075Z,670
2022-12-19T07:13:12.740Z,669.8
2022-12-19T07:14:12.084Z,669.5
2022-12-19T07:15:12.736Z,669.3
2022-12-19T07:16:12.355Z,669.2
2022-12-19T07:17:12.671Z,669.1
2022-12-19T07:18:12.391Z,669.1
2022-12-19T07:19:12.079Z,669
2022-12-19T07:20:12.081Z,669
2022-12-19T07:21:12.716Z,669
2022-12-19T07:22:12.572Z,669
2022-12-19T07:23:12.518Z,669
2022-12-19T07:24:12.118Z,669.1
2022-12-19T07:25:12.167Z,669.1
2022-12-19T07:26:12.078Z,669
2022-12-19T07:27:12.084Z,669
2022-12-19T07:28:12.112Z,669
2022-12-19T07:29:12.417Z,669
2022-12-19T07:30:12.076Z,669.1
2022-12-19T07:31:12.162Z,669.1
2022-12-19T07:32:12.328Z,669.2
2022-12-19T07:33:15.633Z,669.2
2022-12-19T07:35:12.082Z,669.1
2022-12-19T07:36:12.799Z,669
2022-12-19T07:38:12.062Z,669
2022-12-19T07:39:12.197Z,669
2022-12-19T07:40:12.817Z,669.1
2022-12-19T07:41:12.067Z,669.1
2022-12-19T07:42:12.076Z,669.1
2022-12-19T07:43:12.083Z,669.1
2022-12-19T07:44:12.500Z,669.1
2022-12-19T07:45:12.069Z,669.1
2022-12-19T07:46:12.514Z,669.2
2022-12-19T07:47:12.753Z,669.3
2022-12-19T07:48:12.372Z,669.3
2022-12-19T07:49:12.074Z,669.3
2022-12-19T07:50:12.078Z,669.3
2022-12-19T07:51:12.453Z,669.3
2022-12-19T07:52:12.688Z,669.2
2022-12-19T07:53:12.414Z,669.3
2022-12-19T07:54:12.520Z,669.3
2022-12-19T07:55:12.069Z,669.3
2022-12-19T07:56:12.076Z,669.3
2022-12-19T07:57:12.597Z,669.3
2022-12-19T07:58:12.081Z,669.4
2022-12-19T07:59:12.651Z,669.3
2022-12-19T08:00:12.078Z,669.3
2022-12-19T08:01:12.500Z,669.4
2022-12-19T08:02:12.546Z,669.4
2022-12-19T08:03:12.152Z,669.5
2022-12-19T08:04:12.078Z,669.4
2022-12-19T08:05:12.067Z,669.4
2022-12-19T08:06:12.155Z,669.4
2022-12-19T08:07:12.856Z,669.4
2022-12-19T08:08:12.073Z,669.4
2022-12-19T08:09:12.702Z,669.4
2022-12-19T08:10:12.591Z,669.4
2022-12-19T08:11:12.072Z,669.4
2022-12-19T08:12:12.882Z,669.5
2022-12-19T08:13:13.005Z,669.4
2022-12-19T08:14:12.079Z,669.5
2022-12-19T08:15:12.055Z,669.5
2022-12-19T08:16:12.747Z,669.5
2022-12-19T08:17:20.408Z,669.5
2022-12-19T08:18:12.548Z,669.5
2022-12-19T08:19:12.644Z,669.5
2022-12-19T08:20:12.716Z,669.6
2022-12-19T08:21:12.864Z,669.6
2022-12-19T08:22:12.483Z,669.5
2022-12-19T08:23:12.080Z,669.5
2022-12-19T08:24:12.068Z,669.6
2022-12-19T08:25:12.998Z,669.6
2022-12-19T08:26:12.835Z,669.6
2022-12-19T08:27:12.840Z,669.5
2022-12-19T08:28:12.543Z,669.6
2022-12-19T08:29:13.006Z,669.6
2022-12-19T08:30:12.962Z,669.6
2022-12-19T08:31:12.715Z,669.6
2022-12-19T08:32:18.620Z,669.6
2022-12-19T08:33:12.101Z,669.6
2022-12-19T08:35:12.671Z,669.6
2022-12-19T08:37:12.068Z,669.7
2022-12-19T08:38:12.758Z,669.7
2022-12-19T08:39:12.057Z,669.7
2022-12-19T08:41:12.093Z,669.6
2022-12-19T08:42:12.052Z,669.7
2022-12-19T08:43:12.829Z,669.7
2022-12-19T08:44:12.085Z,669.7
2022-12-19T08:45:12.072Z,669.7
2022-12-19T08:46:12.857Z,669.6
2022-12-19T08:47:12.080Z,669.6
2022-12-19T08:48:12.660Z,669.6
2022-12-19T08:49:12.424Z,669.6
2022-12-19T08:50:12.046Z,669.6
2022-12-19T08:53:12.209Z,669.6
2022-12-19T08:54:12.570Z,669.7
2022-12-19T08:56:12.742Z,669.6
2022-12-19T08:57:12.459Z,669.6
2022-12-19T08:58:12.096Z,669.5
2022-12-19T08:59:12.073Z,669.6
2022-12-19T09:00:12.155Z,669.6
2022-12-19T09:01:12.472Z,669.6
2022-12-19T09:02:13.014Z,669.7
2022-12-19T09:03:12.936Z,669.7
2022-12-19T09:05:58.786Z,669.7
2022-12-19T09:06:00.544Z,669.7
2022-12-19T09:06:18.791Z,669.7
2022-12-19T09:07:12.068Z,669.7
2022-12-19T09:08:13.095Z,669.6
2022-12-19T09:09:12.160Z,669.7
2022-12-19T09:10:12.308Z,669.7
2022-12-19T09:11:12.489Z,669.7
2022-12-19T09:12:12.052Z,669.6
2022-12-19T09:13:12.844Z,669.7
2022-12-19T09:15:12.079Z,669.7
2022-12-19T09:16:12.775Z,669.7
2022-12-19T09:17:12.191Z,669.7
2022-12-19T09:18:12.687Z,669.8
2022-12-19T09:19:12.266Z,669.7
2022-12-19T09:20:14.863Z,669.7
2022-12-19T09:21:12.082Z,669.8
2022-12-19T09:22:12.072Z,669.8
2022-12-19T09:23:12.320Z,669.8
2022-12-19T09:25:12.322Z,669.7
2022-12-19T09:26:12.491Z,669.8
2022-12-19T09:27:12.309Z,669.8
2022-12-19T09:29:19.740Z,669.9
2022-12-19T09:30:12.892Z,669.8
2022-12-19T09:31:12.208Z,669.9
2022-12-19T09:32:12.049Z,669.8
2022-12-19T09:33:12.068Z,669.8
2022-12-19T09:34:12.071Z,669.9
2022-12-19T09:35:13.599Z,669.8
2022-12-19T09:36:12.848Z,669.9
2022-12-19T09:38:12.411Z,669.9
2022-12-19T09:39:12.082Z,670
2022-12-19T09:40:12.731Z,670.1
2022-12-19T09:41:12.064Z,670.1
2022-12-19T09:42:12.065Z,670.1
2022-12-19T09:43:12.060Z,670.1
2022-12-19T09:44:12.079Z,670.1
2022-12-19T09:45:17.977Z,670.1
2022-12-19T09:46:12.117Z,670.2
2022-12-19T09:52:12.053Z,670.2
2022-12-19T09:53:12.053Z,670.2
2022-12-19T09:54:12.269Z,670.2
2022-12-19T09:55:12.185Z,670.3
2022-12-19T09:56:12.157Z,670.2
2022-12-19T09:57:12.746Z,670.3
2022-12-19T09:58:12.067Z,670.3
2022-12-19T09:59:12.290Z,670.3
2022-12-19T10:00:12.050Z,670.4
2022-12-19T10:01:12.775Z,670.4
2022-12-19T10:02:12.981Z,670.4
2022-12-19T10:03:12.727Z,670.5
2022-12-19T10:04:12.093Z,670.5
2022-12-19T10:05:23.055Z,670.4
2022-12-19T10:07:08.711Z,670.4
2022-12-19T10:07:40.125Z,670.5
2022-12-19T10:08:12.068Z,670.5
2022-12-19T10:12:33.566Z,670.5
2022-12-19T10:12:40.779Z,670.6
2022-12-19T10:12:44.610Z,670.6
2022-12-19T10:13:13.138Z,670.6
2022-12-19T10:14:12.172Z,670.6
2022-12-19T10:15:12.399Z,670.7
2022-12-19T10:18:12.936Z,670.8
2022-12-19T10:20:12.950Z,670.8
2022-12-19T10:21:12.082Z,670.8
2022-12-19T10:22:19.688Z,670.7
2022-12-19T10:23:12.664Z,670.8
2022-12-19T10:24:12.409Z,670.7
2022-12-19T10:25:12.093Z,670.7
2022-12-19T10:26:12.441Z,670.8
2022-12-19T10:27:12.489Z,670.8
2022-12-19T10:29:12.136Z,670.9
2022-12-19T10:30:12.068Z,670.9
2022-12-19T10:31:19.097Z,670.8
2022-12-19T10:32:12.164Z,670.9
2022-12-19T10:33:14.765Z,670.9
2022-12-19T10:34:12.509Z,670.8
2022-12-19T10:36:12.295Z,670.8
2022-12-19T10:38:12.586Z,671
2022-12-19T10:39:12.708Z,671.1
2022-12-19T10:40:13.175Z,671.1
2022-12-19T10:41:12.075Z,671.2
2022-12-19T10:42:12.660Z,671.3
2022-12-19T10:43:17.107Z,671.3
2022-12-19T10:44:12.060Z,671.3
2022-12-19T10:45:12.088Z,671.3
2022-12-19T10:46:12.567Z,671.3
2022-12-19T10:47:12.557Z,671.2
2022-12-19T10:48:12.629Z,671.4
2022-12-19T10:50:12.617Z,671.4
2022-12-19T10:51:12.073Z,671.4
2022-12-19T10:52:12.099Z,671.4
2022-12-19T10:53:12.833Z,671.6
2022-12-19T10:54:12.091Z,671.6
2022-12-19T10:55:12.142Z,671.6
2022-12-19T10:56:12.080Z,671.7
2022-12-19T10:57:12.171Z,671.8
2022-12-19T10:58:12.535Z,671.8
2022-12-19T10:59:12.598Z,671.7
2022-12-19T11:00:12.748Z,671.8
2022-12-19T11:01:12.067Z,671.8
2022-12-19T11:02:12.191Z,671.8
2022-12-19T11:03:12.324Z,671.9
2022-12-19T11:04:12.092Z,671.8
2022-12-19T11:05:12.087Z,671.7
2022-12-19T11:06:12.059Z,671.7
2022-12-19T11:07:12.282Z,671.7
2022-12-19T11:08:12.504Z,671.6
2022-12-19T11:11:35.836Z,671.6
2022-12-19T11:13:29.170Z,671.7
2022-12-19T11:16:05.471Z,671.7
2022-12-19T11:18:19.955Z,671.6
2022-12-19T11:18:33.337Z,671.6
2022-12-19T11:19:23.047Z,671.7
2022-12-19T11:20:15.684Z,671.7
2022-12-19T11:24:48.027Z,671.7
2022-12-19T11:27:56.874Z,671.7
2022-12-19T11:29:15.031Z,671.7
2022-12-19T11:29:26.119Z,671.7
2022-12-19T11:29:42.129Z,671.8
2022-12-19T11:29:54.355Z,671.7
2022-12-19T11:30:05.168Z,671.7
2022-12-19T11:30:09.084Z,671.8
2022-12-19T11:30:26.149Z,671.8
2022-12-19T11:30:45.889Z,671.7
2022-12-19T11:30:47.447Z,671.8
2022-12-19T11:32:38.896Z,671.8
2022-12-19T11:33:12.380Z,671.8
2022-12-19T11:34:12.049Z,671.9
2022-12-19T11:41:25.988Z,671.8
2022-12-19T11:42:26.375Z,671.7
2022-12-19T11:47:12.053Z,671.6
2022-12-19T11:48:12.629Z,671.7
2022-12-19T11:49:12.750Z,671.5
2022-12-19T11:50:12.048Z,671.5
2022-12-19T11:51:12.099Z,671.5
2022-12-19T11:52:23.700Z,671.5
2022-12-19T11:53:18.605Z,671.5
2022-12-19T11:54:12.566Z,671.6
2022-12-19T11:55:12.242Z,671.6
2022-12-19T11:56:16.410Z,671.7
2022-12-19T11:57:12.848Z,671.7
2022-12-19T11:58:12.053Z,671.6
2022-12-19T11:59:12.932Z,671.7
2022-12-19T12:00:12.667Z,671.7
2022-12-19T12:01:12.051Z,671.6
2022-12-19T12:02:12.859Z,671.6
2022-12-19T12:04:12.509Z,671.5
2022-12-19T12:05:12.115Z,671.8
2022-12-19T12:06:12.047Z,671.7
2022-12-19T12:07:24.253Z,671.7
2022-12-19T12:10:21.217Z,671.8
2022-12-19T12:10:36.049Z,671.7
2022-12-19T12:23:22.015Z,671.9
2022-12-19T12:27:43.856Z,671.9
2022-12-19T12:28:42.832Z,672
2022-12-19T12:30:06.459Z,672
2022-12-19T12:31:06.391Z,672.2
2022-12-19T12:31:07.036Z,672.1
2022-12-19T12:31:16.639Z,672
2022-12-19T12:31:18.580Z,672.1
2022-12-19T12:31:39.010Z,672.1
2022-12-19T12:31:50.631Z,672.1
2022-12-19T12:31:53.064Z,672.1
2022-12-19T12:31:58.648Z,672.3
2022-12-19T12:32:00.731Z,672.2
2022-12-19T12:32:05.066Z,672.1
2022-12-19T12:35:46.743Z,672.3
2022-12-19T12:35:50.919Z,672.4
2022-12-19T12:35:51.344Z,672.3
2022-12-19T12:38:25.094Z,672.4
2022-12-19T12:39:15.986Z,672.4
2022-12-19T12:40:12.045Z,672.5
2022-12-19T12:41:12.717Z,672.5
2022-12-19T12:42:12.044Z,672.5
2022-12-19T12:43:12.105Z,672.5
2022-12-19T12:44:12.093Z,672.5
2022-12-19T12:45:12.051Z,672.4
2022-12-19T12:46:12.913Z,672.4
2022-12-19T12:47:12.738Z,672.5
2022-12-19T12:48:12.687Z,672.5
2022-12-19T12:49:12.065Z,672.7
2022-12-19T12:50:12.951Z,672.6
2022-12-19T12:51:12.528Z,672.6
2022-12-19T12:52:12.561Z,672.6
2022-12-19T12:53:12.743Z,672.6
2022-12-19T12:54:12.236Z,672.6
2022-12-19T12:55:12.022Z,672.6
2022-12-19T12:56:12.045Z,672.6
2022-12-19T12:57:12.041Z,672.7
2022-12-19T12:58:14.692Z,672.8
2022-12-19T12:59:12.724Z,672.8
2022-12-19T13:00:12.038Z,672.8
2022-12-19T13:01:12.472Z,672.8
2022-12-19T13:02:12.299Z,673
2022-12-19T13:03:13.093Z,673.1
2022-12-19T13:04:12.063Z,673.1
2022-12-19T13:05:12.040Z,673.1
2022-12-19T13:06:11.348Z,673
2022-12-19T13:07:12.065Z,673.2
2022-12-19T13:08:12.195Z,673.3
2022-12-19T13:10:12.603Z,673.4
2022-12-19T13:11:12.671Z,673.2
2022-12-19T13:12:12.067Z,673.3
2022-12-19T13:13:15.698Z,673.2
2022-12-19T13:14:12.950Z,673.2
2022-12-19T13:15:12.041Z,673.2
2022-12-19T13:18:26.095Z,673.4
2022-12-19T13:20:12.844Z,673.5
2022-12-19T13:21:12.045Z,673.5
2022-12-19T13:22:12.630Z,673.3
2022-12-19T13:23:12.971Z,673.3
2022-12-19T13:25:12.255Z,673.3
2022-12-19T13:26:18.067Z,673.2
2022-12-19T13:27:12.048Z,673.1
2022-12-19T13:28:12.514Z,673.3
2022-12-19T13:29:12.350Z,673.3
2022-12-19T13:30:12.552Z,673.4
2022-12-19T13:31:20.649Z,673.3
2022-12-19T13:32:12.029Z,673.4
2022-12-19T13:33:12.951Z,673.3
2022-12-19T13:34:12.073Z,673.3
2022-12-19T13:36:15.429Z,673.3
2022-12-19T13:39:48.863Z,673.3
2022-12-19T13:39:51.894Z,673.2
2022-12-19T13:39:54.031Z,673.3
2022-12-19T13:39:59.745Z,673.3
2022-12-19T13:40:13.544Z,673.4
2022-12-19T13:41:12.430Z,673.3
2022-12-19T13:42:12.041Z,673.3
2022-12-19T13:43:12.534Z,673.2
2022-12-19T13:44:12.350Z,673.3
2022-12-19T13:45:12.070Z,673.3
2022-12-19T13:46:12.230Z,673.2
2022-12-19T13:47:12.472Z,673.1
2022-12-19T13:48:12.042Z,673.2
2022-12-19T13:49:12.045Z,673.2
2022-12-19T13:50:12.107Z,673.2
2022-12-19T13:51:12.613Z,673.1
2022-12-19T13:52:12.670Z,673.1
2022-12-19T13:53:12.724Z,673.2
2022-12-19T13:54:12.049Z,673.2
2022-12-19T13:55:12.052Z,673.2
2022-12-19T13:56:12.699Z,673.2
2022-12-19T13:57:12.054Z,673.2
2022-12-19T13:58:12.055Z,673.1
2022-12-19T13:59:12.879Z,673.2
2022-12-19T14:00:12.148Z,673.1
2022-12-19T14:01:20.643Z,673
2022-12-19T14:03:13.100Z,673
2022-12-19T14:04:12.490Z,672.9
2022-12-19T14:06:17.453Z,672.8
2022-12-19T14:07:12.022Z,672.7
2022-12-19T14:08:12.045Z,672.7
2022-12-19T14:11:24.045Z,672.7
2022-12-19T14:11:31.742Z,672.7
2022-12-19T14:11:33.841Z,672.7
2022-12-19T14:13:47.615Z,672.6
2022-12-19T14:14:17.736Z,672.7
2022-12-19T14:15:13.861Z,672.8
2022-12-19T14:16:12.083Z,672.8
2022-12-19T14:17:12.041Z,672.9
2022-12-19T14:18:44.411Z,672.7
2022-12-19T14:19:12.533Z,672.6
2022-12-19T14:20:15.901Z,672.7
2022-12-19T14:22:07.897Z,672.7
2022-12-19T14:22:20.869Z,672.7
2022-12-19T14:24:12.030Z,672.6
2022-12-19T14:28:15.592Z,672.5
2022-12-19T14:28:21.570Z,672.6
2022-12-19T14:28:23.380Z,672.5
2022-12-19T14:28:25.080Z,672.6
2022-12-19T14:29:11.263Z,672.7
2022-12-19T14:30:30.231Z,672.6
2022-12-19T14:31:12.115Z,672.6
2022-12-19T14:33:45.423Z,672.6
2022-12-19T14:33:47.187Z,672.5
2022-12-19T14:34:43.291Z,672.6
2022-12-19T14:36:06.656Z,672.5
2022-12-19T14:36:16.363Z,672.4
2022-12-19T14:37:12.737Z,672.5
2022-12-19T14:39:20.965Z,672.5
2022-12-19T14:39:23.899Z,672.6
2022-12-19T14:40:12.052Z,672.5
2022-12-19T14:41:12.751Z,672.4
2022-12-19T14:42:12.825Z,672.4
2022-12-19T14:43:57.893Z,672.4
2022-12-19T14:52:25.068Z,672.3
2022-12-19T14:54:01.159Z,672.4
2022-12-19T14:54:02.816Z,672.4
2022-12-19T14:54:03.914Z,672.5
2022-12-19T14:54:05.640Z,672.5
2022-12-19T14:54:12.029Z,672.5
2022-12-19T14:54:28.758Z,672.5
2022-12-19T14:54:34.133Z,672.5
2022-12-19T14:54:50.510Z,672.5
2022-12-19T14:56:19.613Z,672.4
2022-12-19T14:56:30.971Z,672.5
2022-12-19T14:57:12.100Z,672.5
2022-12-19T14:58:56.225Z,672.6
2022-12-19T14:59:12.078Z,672.6
2022-12-19T15:00:34.924Z,672.6
2022-12-19T15:01:15.358Z,672.6
2022-12-19T15:02:12.284Z,672.6
2022-12-19T15:03:15.916Z,672.5
2022-12-19T15:04:53.141Z,672.5
2022-12-19T15:05:12.099Z,672.4
2022-12-19T15:06:19.770Z,672.5
2022-12-19T15:07:12.859Z,672.5
2022-12-19T15:11:00.712Z,672.5
2022-12-19T15:11:05.454Z,672.5